Terminal Aerodrome Forecast
Issued by NWS Pueblo, CO

Home | Current Version | Previous Version | Text Only | Print | Product List | Glossary On
Versions: 1 2 3 4 5 6 7 8 9 10 11 12 13 14 15 16 17 18 19 20 21 22 23 24 25 26 27 28 29 30
000
FTUS45 KPUB 221131
TAFCOS
TAF
KCOS 221131Z 2212/2312 02012KT P6SM VCSH BKN090
      TEMPO 2212/2214 -SHSN BKN030
     FM221600 33010KT P6SM SCT050 BKN090
     FM222300 35011KT P6SM VCSH OVC040
     FM230100 35014KT 5SM -SHSN BR OVC020
     FM230700 33016KT P6SM SCT020 SCT090=

USA.gov is the U.S. government's official web portal to all federal, state and local government web resources and services.